Terminal Aerodrome Forecast
Issued by NWS

Current Version | Previous Version | Text Only | Print | Product List | Glossary Off
Versions: 1 2 3 4 5 6 7 8 9 10 11 12 13 14 15 16

372
FTUS41 KILN 230541
TAFLUK
TAF
KLUK 230541Z 2306/2406 06005KT P6SM FEW150
     FM231600 11009KT P6SM SCT100
     FM231900 14008KT P6SM BKN090
     FM240400 17006KT P6SM BKN060 WS020/21045KT=

USA.gov is the U.S. government's official web portal to all federal, state and local government web resources and services.